sensor_id;sensor_type;location;lat;lon;timestamp;P1;durP1;ratioP1;P2;durP2;ratioP2
28068;SDS011;15382;47.578;8.086;2023-02-22T00:06:03;5.68;;;2.50;;
28068;SDS011;15382;47.578;8.086;2023-02-22T00:16:05;8.68;;;2.30;;
28068;SDS011;15382;47.578;8.086;2023-02-22T00:26:06;4.88;;;2.40;;
28068;SDS011;15382;47.578;8.086;2023-02-22T00:36:09;3.75;;;2.33;;
28068;SDS011;15382;47.578;8.086;2023-02-22T00:46:12;11.00;;;5.13;;
28068;SDS011;15382;47.578;8.086;2023-02-22T00:56:13;16.15;;;5.78;;
28068;SDS011;15382;47.578;8.086;2023-02-22T01:06:13;14.48;;;5.90;;
28068;SDS011;15382;47.578;8.086;2023-02-22T01:16:14;10.63;;;4.90;;
28068;SDS011;15382;47.578;8.086;2023-02-22T01:26:15;13.43;;;6.70;;
28068;SDS011;15382;47.578;8.086;2023-02-22T01:36:16;10.23;;;5.80;;
28068;SDS011;15382;47.578;8.086;2023-02-22T01:56:20;5.07;;;3.00;;
28068;SDS011;15382;47.578;8.086;2023-02-22T02:06:24;6.38;;;2.33;;
28068;SDS011;15382;47.578;8.086;2023-02-22T02:16:37;3.03;;;2.15;;
28068;SDS011;15382;47.578;8.086;2023-02-22T02:47:38;9.02;;;3.05;;
28068;SDS011;15382;47.578;8.086;2023-02-22T02:57:44;14.57;;;5.60;;
28068;SDS011;15382;47.578;8.086;2023-02-22T03:17:55;11.73;;;5.28;;
28068;SDS011;15382;47.578;8.086;2023-02-22T03:28:04;11.63;;;6.72;;
28068;SDS011;15382;47.578;8.086;2023-02-22T03:38:11;12.00;;;4.95;;
28068;SDS011;15382;47.578;8.086;2023-02-22T03:58:45;14.80;;;5.20;;
28068;SDS011;15382;47.578;8.086;2023-02-22T04:08:48;9.55;;;4.93;;
28068;SDS011;15382;47.578;8.086;2023-02-22T04:18:49;8.48;;;4.75;;
28068;SDS011;15382;47.578;8.086;2023-02-22T04:28:52;14.13;;;5.45;;
28068;SDS011;15382;47.578;8.086;2023-02-22T04:38:57;13.88;;;5.05;;
28068;SDS011;15382;47.578;8.086;2023-02-22T04:49:00;12.73;;;5.18;;
28068;SDS011;15382;47.578;8.086;2023-02-22T04:59:04;10.05;;;5.43;;
28068;SDS011;15382;47.578;8.086;2023-02-22T05:09:05;9.40;;;4.97;;
28068;SDS011;15382;47.578;8.086;2023-02-22T05:19:06;20.65;;;5.57;;
28068;SDS011;15382;47.578;8.086;2023-02-22T05:29:07;7.30;;;4.50;;
28068;SDS011;15382;47.578;8.086;2023-02-22T05:39:07;18.23;;;5.32;;
28068;SDS011;15382;47.578;8.086;2023-02-22T05:49:08;9.50;;;4.82;;
28068;SDS011;15382;47.578;8.086;2023-02-22T05:59:09;16.70;;;5.22;;
28068;SDS011;15382;47.578;8.086;2023-02-22T06:09:10;13.27;;;6.40;;
28068;SDS011;15382;47.578;8.086;2023-02-22T06:19:10;11.80;;;5.78;;
28068;SDS011;15382;47.578;8.086;2023-02-22T06:29:11;10.15;;;5.28;;
28068;SDS011;15382;47.578;8.086;2023-02-22T06:39:13;8.80;;;5.43;;
28068;SDS011;15382;47.578;8.086;2023-02-22T06:49:18;11.77;;;5.90;;
28068;SDS011;15382;47.578;8.086;2023-02-22T06:59:19;15.38;;;8.35;;
28068;SDS011;15382;47.578;8.086;2023-02-22T07:19:21;12.13;;;5.18;;
28068;SDS011;15382;47.578;8.086;2023-02-22T07:29:21;12.00;;;5.43;;
28068;SDS011;15382;47.578;8.086;2023-02-22T07:39:22;11.38;;;4.95;;
28068;SDS011;15382;47.578;8.086;2023-02-22T07:49:23;13.18;;;5.95;;
28068;SDS011;15382;47.578;8.086;2023-02-22T08:09:25;14.95;;;7.97;;
28068;SDS011;15382;47.578;8.086;2023-02-22T08:29:26;13.75;;;7.00;;
28068;SDS011;15382;47.578;8.086;2023-02-22T08:39:32;10.88;;;6.72;;
28068;SDS011;15382;47.578;8.086;2023-02-22T08:49:33;12.17;;;7.27;;
28068;SDS011;15382;47.578;8.086;2023-02-22T08:59:35;28.65;;;8.10;;
28068;SDS011;15382;47.578;8.086;2023-02-22T09:09:36;17.97;;;7.43;;
28068;SDS011;15382;47.578;8.086;2023-02-22T09:19:37;11.85;;;7.20;;
28068;SDS011;15382;47.578;8.086;2023-02-22T09:29:37;15.87;;;8.13;;
28068;SDS011;15382;47.578;8.086;2023-02-22T09:39:38;14.30;;;8.50;;
28068;SDS011;15382;47.578;8.086;2023-02-22T09:49:41;21.00;;;10.27;;
28068;SDS011;15382;47.578;8.086;2023-02-22T09:59:55;18.35;;;9.30;;
28068;SDS011;15382;47.578;8.086;2023-02-22T10:10:19;24.92;;;9.88;;
28068;SDS011;15382;47.578;8.086;2023-02-22T10:30:42;21.02;;;10.38;;
28068;SDS011;15382;47.578;8.086;2023-02-22T10:51:00;20.67;;;10.68;;
28068;SDS011;15382;47.578;8.086;2023-02-22T11:01:15;20.38;;;8.90;;
28068;SDS011;15382;47.578;8.086;2023-02-22T11:11:25;17.65;;;9.70;;
28068;SDS011;15382;47.578;8.086;2023-02-22T11:21:29;19.30;;;9.63;;
28068;SDS011;15382;47.578;8.086;2023-02-22T11:31:31;17.80;;;9.30;;
28068;SDS011;15382;47.578;8.086;2023-02-22T11:41:32;13.70;;;7.77;;
28068;SDS011;15382;47.578;8.086;2023-02-22T12:02:22;15.23;;;8.63;;
28068;SDS011;15382;47.578;8.086;2023-02-22T12:22:58;25.48;;;9.80;;
28068;SDS011;15382;47.578;8.086;2023-02-22T12:33:09;18.77;;;8.27;;
28068;SDS011;15382;47.578;8.086;2023-02-22T12:53:34;16.55;;;8.43;;
28068;SDS011;15382;47.578;8.086;2023-02-22T13:03:38;17.30;;;8.57;;
28068;SDS011;15382;47.578;8.086;2023-02-22T13:13:46;19.50;;;9.40;;
28068;SDS011;15382;47.578;8.086;2023-02-22T13:55:04;18.67;;;9.90;;
28068;SDS011;15382;47.578;8.086;2023-02-22T14:26:30;19.02;;;9.73;;
28068;SDS011;15382;47.578;8.086;2023-02-22T14:47:08;18.58;;;10.57;;
28068;SDS011;15382;47.578;8.086;2023-02-22T15:08:06;21.92;;;10.70;;
28068;SDS011;15382;47.578;8.086;2023-02-22T15:18:16;20.90;;;10.75;;
28068;SDS011;15382;47.578;8.086;2023-02-22T15:28:18;24.10;;;11.30;;
28068;SDS011;15382;47.578;8.086;2023-02-22T15:38:28;22.80;;;12.40;;
28068;SDS011;15382;47.578;8.086;2023-02-22T15:48:29;25.42;;;12.45;;
28068;SDS011;15382;47.578;8.086;2023-02-22T15:58:32;24.30;;;11.73;;
28068;SDS011;15382;47.578;8.086;2023-02-22T16:18:43;29.40;;;12.38;;
28068;SDS011;15382;47.578;8.086;2023-02-22T16:28:48;31.43;;;14.27;;
28068;SDS011;15382;47.578;8.086;2023-02-22T16:38:54;28.55;;;12.80;;
28068;SDS011;15382;47.578;8.086;2023-02-22T16:48:55;28.97;;;11.53;;
28068;SDS011;15382;47.578;8.086;2023-02-22T16:59:02;36.25;;;13.80;;
28068;SDS011;15382;47.578;8.086;2023-02-22T17:09:09;27.07;;;12.80;;
28068;SDS011;15382;47.578;8.086;2023-02-22T17:19:14;24.40;;;12.68;;
28068;SDS011;15382;47.578;8.086;2023-02-22T17:29:20;31.35;;;13.15;;
28068;SDS011;15382;47.578;8.086;2023-02-22T17:39:21;34.15;;;15.77;;
28068;SDS011;15382;47.578;8.086;2023-02-22T17:49:22;35.10;;;14.40;;
28068;SDS011;15382;47.578;8.086;2023-02-22T17:59:23;33.97;;;14.90;;
28068;SDS011;15382;47.578;8.086;2023-02-22T18:09:24;39.23;;;15.50;;
28068;SDS011;15382;47.578;8.086;2023-02-22T18:19:25;31.60;;;14.87;;
28068;SDS011;15382;47.578;8.086;2023-02-22T18:29:28;33.90;;;16.20;;
28068;SDS011;15382;47.578;8.086;2023-02-22T18:39:28;40.53;;;16.90;;
28068;SDS011;15382;47.578;8.086;2023-02-22T18:49:32;38.58;;;16.55;;
28068;SDS011;15382;47.578;8.086;2023-02-22T18:59:33;36.47;;;15.73;;
28068;SDS011;15382;47.578;8.086;2023-02-22T19:09:34;36.63;;;16.33;;
28068;SDS011;15382;47.578;8.086;2023-02-22T19:19:35;45.08;;;19.27;;
28068;SDS011;15382;47.578;8.086;2023-02-22T19:29:36;45.53;;;16.97;;
28068;SDS011;15382;47.578;8.086;2023-02-22T19:39:38;43.15;;;18.90;;
28068;SDS011;15382;47.578;8.086;2023-02-22T19:49:41;46.20;;;19.90;;
28068;SDS011;15382;47.578;8.086;2023-02-22T19:59:42;39.17;;;18.23;;
28068;SDS011;15382;47.578;8.086;2023-02-22T20:09:44;44.45;;;20.65;;
28068;SDS011;15382;47.578;8.086;2023-02-22T20:19:44;37.43;;;18.67;;
28068;SDS011;15382;47.578;8.086;2023-02-22T20:29:47;40.08;;;18.80;;
28068;SDS011;15382;47.578;8.086;2023-02-22T20:39:51;42.07;;;18.07;;
28068;SDS011;15382;47.578;8.086;2023-02-22T20:49:52;35.65;;;18.42;;
28068;SDS011;15382;47.578;8.086;2023-02-22T20:59:52;40.70;;;18.57;;
28068;SDS011;15382;47.578;8.086;2023-02-22T21:09:53;43.73;;;19.83;;
28068;SDS011;15382;47.578;8.086;2023-02-22T21:19:54;40.67;;;19.10;;
28068;SDS011;15382;47.578;8.086;2023-02-22T21:29:56;41.22;;;19.98;;
28068;SDS011;15382;47.578;8.086;2023-02-22T21:39:57;41.58;;;19.98;;
28068;SDS011;15382;47.578;8.086;2023-02-22T21:49:58;43.70;;;19.33;;
28068;SDS011;15382;47.578;8.086;2023-02-22T22:00:00;43.63;;;20.27;;
28068;SDS011;15382;47.578;8.086;2023-02-22T22:20:17;39.90;;;19.02;;
28068;SDS011;15382;47.578;8.086;2023-02-22T22:30:18;48.77;;;23.43;;
28068;SDS011;15382;47.578;8.086;2023-02-22T22:40:19;48.67;;;21.07;;
28068;SDS011;15382;47.578;8.086;2023-02-22T22:50:19;49.00;;;20.83;;
28068;SDS011;15382;47.578;8.086;2023-02-22T23:00:25;45.97;;;20.45;;
28068;SDS011;15382;47.578;8.086;2023-02-22T23:10:35;33.85;;;17.73;;
28068;SDS011;15382;47.578;8.086;2023-02-22T23:20:40;48.75;;;22.67;;
28068;SDS011;15382;47.578;8.086;2023-02-22T23:30:41;48.25;;;21.02;;
28068;SDS011;15382;47.578;8.086;2023-02-22T23:40:42;38.17;;;18.45;;
